createdAt,value
2018-06-22T00:01:46.930Z,7.30
2018-06-22T00:04:15.839Z,7.50
2018-06-22T00:06:44.960Z,7.23
2018-06-22T00:09:13.900Z,7.07
2018-06-22T00:11:42.830Z,7.13
2018-06-22T00:14:11.646Z,7.30
2018-06-22T00:16:40.615Z,6.53
2018-06-22T00:19:09.459Z,7.37
2018-06-22T00:21:38.686Z,8.13
2018-06-22T00:24:07.550Z,6.80
2018-06-22T00:26:36.431Z,8.10
2018-06-22T00:29:05.955Z,7.30
2018-06-22T00:31:35.112Z,7.07
2018-06-22T00:34:04.017Z,7.27
2018-06-22T00:36:32.907Z,7.50
2018-06-22T00:39:01.721Z,7.93
2018-06-22T00:41:30.627Z,7.40
2018-06-22T00:43:59.505Z,8.10
2018-06-22T00:46:28.482Z,7.80
2018-06-22T00:48:57.316Z,7.23
2018-06-22T00:51:26.191Z,8.00
2018-06-22T00:54:10.956Z,6.93
2018-06-22T00:56:39.855Z,7.80
2018-06-22T00:59:08.794Z,7.70
2018-06-22T01:01:37.687Z,6.70
2018-06-22T01:04:06.829Z,6.73
2018-06-22T01:06:35.648Z,6.20
2018-06-22T01:09:12.328Z,6.90
2018-06-22T01:11:41.251Z,6.87
2018-06-22T01:14:11.051Z,7.03
2018-06-22T01:16:40.102Z,6.37
2018-06-22T01:19:08.975Z,6.73
2018-06-22T01:21:37.935Z,8.00
2018-06-22T01:24:06.765Z,7.60
2018-06-22T01:26:35.648Z,6.97
2018-06-22T01:29:10.131Z,7.67
2018-06-22T01:31:39.080Z,6.30
2018-06-22T01:34:07.955Z,5.80
2018-06-22T01:36:36.874Z,7.50
2018-06-22T01:39:07.783Z,6.53
2018-06-22T01:41:36.634Z,6.70
2018-06-22T01:44:05.786Z,7.07
2018-06-22T01:46:35.139Z,7.37
2018-06-22T01:49:11.036Z,5.80
2018-06-22T01:51:40.012Z,6.97
2018-06-22T01:54:08.851Z,6.80
2018-06-22T01:56:37.776Z,6.50
2018-06-22T01:59:06.605Z,7.33
2018-06-22T02:01:35.978Z,6.50
2018-06-22T02:04:04.832Z,6.60
2018-06-22T02:06:33.574Z,7.17
2018-06-22T02:09:03.665Z,7.67
2018-06-22T02:11:32.543Z,7.40
2018-06-22T02:14:01.449Z,7.57
2018-06-22T02:16:30.911Z,7.27
2018-06-22T02:19:00.223Z,8.33
2018-06-22T02:21:29.492Z,6.73
2018-06-22T02:23:58.693Z,7.87
2018-06-22T02:26:27.851Z,7.30
2018-06-22T02:28:56.707Z,7.13
2018-06-22T02:31:25.531Z,6.67
2018-06-22T02:33:54.618Z,6.70
2018-06-22T02:36:23.464Z,7.23
2018-06-22T02:38:52.303Z,7.70
2018-06-22T02:41:21.172Z,6.03
2018-06-22T02:43:50.020Z,6.53
2018-06-22T02:46:18.851Z,7.20
2018-06-22T02:48:47.703Z,5.80
2018-06-22T02:51:16.662Z,6.63
2018-06-22T02:53:45.480Z,6.57
2018-06-22T02:56:14.304Z,7.33
2018-06-22T02:58:43.144Z,7.47
2018-06-22T03:01:11.976Z,6.77
2018-06-22T03:03:40.722Z,6.50
2018-06-22T03:06:09.544Z,5.77
2018-06-22T03:08:38.386Z,5.53
2018-06-22T03:11:07.260Z,6.43
2018-06-22T03:13:36.103Z,7.30
2018-06-22T03:16:05.257Z,5.93
2018-06-22T03:18:34.106Z,6.07
2018-06-22T03:21:03.048Z,5.97
2018-06-22T03:23:31.848Z,5.93
2018-06-22T03:26:00.698Z,6.40
2018-06-22T03:28:29.538Z,6.80
2018-06-22T03:30:58.479Z,7.23
2018-06-22T03:33:28.164Z,7.27
2018-06-22T03:35:57.016Z,6.40
2018-06-22T03:38:25.894Z,7.40
2018-06-22T03:40:54.785Z,6.40
2018-06-22T03:43:23.629Z,6.70
2018-06-22T03:45:52.474Z,7.30
2018-06-22T03:48:21.299Z,6.50
2018-06-22T03:50:50.248Z,5.47
2018-06-22T03:53:19.106Z,6.37
2018-06-22T03:55:47.935Z,6.40
2018-06-22T03:58:16.782Z,6.40
2018-06-22T04:00:45.678Z,6.87
2018-06-22T04:03:14.555Z,7.90
2018-06-22T04:05:43.307Z,6.43
2018-06-22T04:08:12.227Z,6.53
2018-06-22T04:10:41.069Z,6.43
2018-06-22T04:13:09.868Z,6.30
2018-06-22T04:15:38.739Z,7.20
2018-06-22T04:18:07.603Z,7.40
2018-06-22T04:20:36.604Z,7.90
2018-06-22T04:23:05.516Z,7.00
2018-06-22T04:25:34.423Z,6.70
2018-06-22T04:28:03.291Z,7.00
2018-06-22T04:30:32.279Z,7.50
2018-06-22T04:33:01.116Z,7.07
2018-06-22T04:35:30.012Z,6.97
2018-06-22T04:37:59.256Z,7.37
2018-06-22T04:40:28.752Z,6.90
2018-06-22T04:42:57.707Z,7.70
2018-06-22T04:45:26.719Z,7.97
2018-06-22T04:47:55.596Z,7.30
2018-06-22T04:50:26.083Z,7.67
2018-06-22T04:52:55.113Z,7.67
2018-06-22T04:55:24.197Z,7.77
2018-06-22T04:57:53.296Z,6.50
2018-06-22T05:00:22.566Z,7.13
2018-06-22T05:02:51.451Z,8.53
2018-06-22T05:05:20.300Z,7.90
2018-06-22T05:07:49.063Z,6.80
2018-06-22T05:10:18.090Z,7.57
2018-06-22T05:12:46.950Z,7.67
2018-06-22T05:15:15.830Z,7.37
2018-06-22T05:17:44.715Z,6.70
2018-06-22T05:20:13.748Z,6.10
2018-06-22T05:22:42.758Z,6.30
2018-06-22T05:25:12.575Z,7.67
2018-06-22T05:27:41.601Z,6.20
2018-06-22T05:30:10.626Z,6.87
2018-06-22T05:32:39.397Z,6.73
2018-06-22T05:35:08.352Z,6.87
2018-06-22T05:37:37.563Z,6.50
2018-06-22T05:40:06.973Z,6.53
2018-06-22T05:42:37.151Z,5.97
2018-06-22T05:45:07.757Z,5.90
2018-06-22T05:47:36.941Z,6.40
2018-06-22T05:50:06.395Z,4.70
2018-06-22T05:52:35.582Z,5.30
2018-06-22T05:55:04.947Z,5.83
2018-06-22T05:57:34.216Z,6.47
2018-06-22T06:00:03.301Z,7.23
2018-06-22T06:02:32.351Z,6.30
2018-06-22T06:05:01.564Z,5.37
2018-06-22T06:07:30.436Z,5.43
2018-06-22T06:09:59.266Z,5.57
2018-06-22T06:12:28.636Z,6.60
2018-06-22T06:14:57.552Z,5.93
2018-06-22T06:17:26.677Z,5.57
2018-06-22T06:19:56.001Z,6.43
2018-06-22T06:22:25.095Z,5.43
2018-06-22T06:24:54.077Z,5.27
2018-06-22T06:27:23.244Z,5.40
2018-06-22T06:29:52.259Z,3.73
2018-06-22T06:32:21.419Z,5.20
2018-06-22T06:34:50.353Z,5.50
2018-06-22T06:37:20.290Z,5.03
2018-06-22T06:39:49.755Z,5.20
2018-06-22T06:42:18.551Z,4.80
2018-06-22T06:44:47.430Z,5.20
2018-06-22T06:47:16.286Z,4.80
2018-06-22T06:49:45.565Z,4.33
2018-06-22T06:52:14.448Z,5.00
2018-06-22T06:54:43.711Z,5.30
2018-06-22T06:57:12.692Z,4.43
2018-06-22T06:59:41.885Z,4.60
2018-06-22T07:02:10.889Z,3.97
2018-06-22T07:04:40.275Z,4.83
2018-06-22T07:07:09.356Z,4.93
2018-06-22T07:09:38.669Z,4.60
2018-06-22T07:12:08.666Z,3.97
2018-06-22T07:14:37.623Z,4.80
2018-06-22T07:17:06.822Z,4.90
2018-06-22T07:19:36.111Z,5.30
2018-06-22T07:22:05.092Z,4.60
2018-06-22T07:24:34.667Z,4.67
2018-06-22T07:27:04.181Z,5.10
2018-06-22T07:29:32.995Z,5.07
2018-06-22T07:32:01.897Z,4.77
2018-06-22T07:34:30.737Z,6.20
2018-06-22T07:36:59.648Z,4.30
2018-06-22T07:39:28.553Z,4.87
2018-06-22T07:41:57.455Z,5.40
2018-06-22T07:44:26.834Z,4.57
2018-06-22T07:46:55.869Z,5.10
2018-06-22T07:49:25.180Z,4.80
2018-06-22T07:51:54.298Z,4.87
2018-06-22T07:54:23.176Z,4.97
2018-06-22T07:56:52.056Z,4.37
2018-06-22T07:59:20.947Z,4.30
2018-06-22T08:01:49.965Z,4.47
2018-06-22T08:04:20.246Z,4.30
2018-06-22T08:06:49.376Z,5.00
2018-06-22T08:09:18.679Z,4.30
2018-06-22T08:11:47.725Z,5.30
2018-06-22T08:14:16.712Z,5.33
2018-06-22T08:16:45.602Z,4.10
2018-06-22T08:19:14.411Z,4.10
2018-06-22T08:21:44.169Z,4.77
2018-06-22T08:24:13.053Z,4.80
2018-06-22T08:26:42.472Z,4.27
2018-06-22T08:29:11.311Z,4.90
2018-06-22T08:31:40.285Z,3.97
2018-06-22T08:34:09.471Z,4.37
2018-06-22T08:36:38.373Z,4.33
2018-06-22T08:39:09.124Z,14.83
2018-06-22T08:41:39.180Z,7.03
2018-06-22T08:44:08.151Z,5.00
2018-06-22T08:46:37.460Z,4.87
2018-06-22T08:49:06.801Z,5.20
2018-06-22T08:51:36.060Z,5.43
2018-06-22T08:54:05.260Z,4.00
2018-06-22T08:56:34.479Z,3.40
2018-06-22T08:59:03.468Z,3.00
2018-06-22T09:01:32.773Z,3.93
2018-06-22T09:04:01.643Z,4.40
2018-06-22T09:06:30.484Z,4.00
2018-06-22T09:08:59.336Z,4.23
2018-06-22T09:11:28.276Z,3.20
2018-06-22T09:13:57.151Z,4.27
2018-06-22T09:16:26.004Z,3.80
2018-06-22T09:18:54.825Z,4.00
2018-06-22T09:21:24.213Z,5.00
2018-06-22T09:23:53.176Z,5.87
2018-06-22T09:26:22.015Z,5.50
2018-06-22T09:28:50.879Z,5.80
2018-06-22T09:31:19.764Z,4.70
2018-06-22T09:33:48.584Z,5.37
2018-06-22T09:36:17.450Z,10.00
2018-06-22T09:38:46.205Z,5.00
2018-06-22T09:41:15.134Z,4.57
2018-06-22T09:43:43.951Z,4.63
2018-06-22T09:46:12.792Z,4.37
2018-06-22T09:48:41.520Z,4.10
2018-06-22T09:51:10.427Z,4.23
2018-06-22T09:53:39.323Z,5.13
2018-06-22T09:56:08.217Z,3.50
2018-06-22T09:58:37.056Z,4.03
2018-06-22T10:01:06.105Z,2.97
2018-06-22T10:03:34.959Z,2.47
2018-06-22T10:06:03.797Z,5.60
2018-06-22T10:08:32.701Z,5.17
2018-06-22T10:11:02.444Z,3.30
2018-06-22T10:13:31.564Z,3.47
2018-06-22T10:16:00.748Z,3.60
2018-06-22T10:18:29.688Z,3.37
2018-06-22T10:20:58.681Z,3.90
2018-06-22T10:23:27.953Z,3.27
2018-06-22T10:25:56.953Z,6.70
2018-06-22T10:28:25.849Z,3.53
2018-06-22T10:30:54.677Z,4.10
2018-06-22T10:33:23.694Z,5.03
2018-06-22T10:35:52.636Z,5.00
2018-06-22T10:38:21.790Z,4.50
2018-06-22T10:40:50.848Z,4.60
2018-06-22T10:43:19.798Z,5.87
2018-06-22T10:45:49.040Z,4.50
2018-06-22T10:48:18.912Z,4.07
2018-06-22T10:50:47.799Z,3.80
2018-06-22T10:53:17.689Z,4.23
2018-06-22T10:55:48.463Z,4.00
2018-06-22T10:58:17.759Z,3.30
2018-06-22T11:00:46.959Z,3.27
2018-06-22T11:03:15.881Z,3.70
2018-06-22T11:05:44.769Z,3.10
2018-06-22T11:08:13.571Z,3.90
2018-06-22T11:10:42.495Z,4.40
2018-06-22T11:13:11.323Z,3.63
2018-06-22T11:15:41.030Z,3.60
2018-06-22T11:18:10.100Z,4.20
2018-06-22T11:20:39.038Z,3.90
2018-06-22T11:23:08.222Z,4.10
2018-06-22T11:25:38.092Z,3.73
2018-06-22T11:28:07.690Z,3.43
2018-06-22T11:30:36.671Z,3.70
2018-06-22T11:33:05.547Z,4.20
2018-06-22T11:35:34.334Z,3.10
2018-06-22T11:38:03.568Z,3.77
2018-06-22T11:40:32.684Z,3.10
2018-06-22T11:43:01.881Z,3.80
2018-06-22T11:45:31.815Z,4.37
2018-06-22T11:48:00.901Z,4.27
2018-06-22T11:50:29.895Z,4.30
2018-06-22T11:52:58.776Z,3.87
2018-06-22T11:55:27.720Z,3.53
2018-06-22T11:57:56.607Z,3.40
2018-06-22T12:00:25.676Z,3.70
2018-06-22T12:02:54.642Z,5.37
2018-06-22T12:05:23.766Z,4.70
2018-06-22T12:07:52.866Z,5.93
2018-06-22T12:10:21.859Z,4.00
2018-06-22T12:12:50.800Z,3.90
2018-06-22T12:15:19.693Z,3.83
2018-06-22T12:17:48.585Z,4.00
2018-06-22T12:20:17.581Z,4.07
2018-06-22T12:22:46.443Z,3.50
2018-06-22T12:25:15.344Z,4.17
2018-06-22T12:27:44.203Z,3.80
2018-06-22T12:30:13.139Z,3.90
2018-06-22T12:32:42.015Z,3.70
2018-06-22T12:35:10.741Z,4.70
2018-06-22T12:37:39.668Z,4.53
2018-06-22T12:40:08.708Z,5.23
2018-06-22T12:42:37.740Z,5.00
2018-06-22T12:45:06.929Z,5.23
2018-06-22T12:47:35.830Z,5.40
2018-06-22T12:50:05.003Z,4.40
2018-06-22T12:52:33.810Z,5.23
2018-06-22T12:55:02.764Z,5.00
2018-06-22T12:57:31.705Z,4.87
2018-06-22T13:00:00.636Z,4.30
2018-06-22T13:02:29.612Z,4.87
2018-06-22T13:04:58.652Z,5.20
2018-06-22T13:07:27.538Z,6.23
2018-06-22T13:09:56.446Z,4.40
2018-06-22T13:12:25.420Z,3.43
2018-06-22T13:14:55.603Z,4.17
2018-06-22T13:17:24.488Z,3.70
2018-06-22T13:19:53.443Z,4.30
2018-06-22T13:22:22.348Z,4.00
2018-06-22T13:24:51.334Z,3.57
2018-06-22T13:27:20.220Z,4.43
2018-06-22T13:29:49.172Z,4.30
2018-06-22T13:32:18.188Z,4.47
2018-06-22T13:34:47.045Z,4.73
2018-06-22T13:37:16.056Z,3.80
2018-06-22T13:39:44.978Z,4.00
2018-06-22T13:42:13.952Z,3.60
2018-06-22T13:44:42.913Z,3.73
2018-06-22T13:47:11.783Z,4.60
2018-06-22T13:49:41.446Z,4.10
2018-06-22T13:52:10.793Z,4.70
2018-06-22T13:54:39.972Z,4.00
2018-06-22T13:57:09.589Z,4.30
2018-06-22T13:59:39.068Z,3.57
2018-06-22T14:02:08.319Z,5.00
2018-06-22T14:04:43.129Z,4.60
2018-06-22T14:07:12.191Z,4.37
2018-06-22T14:09:41.875Z,5.00
2018-06-22T14:12:11.343Z,4.23
2018-06-22T14:14:40.275Z,4.07
2018-06-22T14:17:09.564Z,4.90
2018-06-22T14:19:38.754Z,3.90
2018-06-22T14:22:08.016Z,5.77
2018-06-22T14:24:37.693Z,3.90
2018-06-22T14:27:07.075Z,5.33
2018-06-22T14:29:36.287Z,4.90
2018-06-22T14:32:05.441Z,5.77
2018-06-22T14:34:34.820Z,6.30
2018-06-22T14:37:04.344Z,4.90
2018-06-22T14:39:33.613Z,4.67
2018-06-22T14:42:02.888Z,4.60
2018-06-22T14:44:31.665Z,4.20
2018-06-22T14:47:01.029Z,8.70
2018-06-22T14:49:30.207Z,4.70
2018-06-22T14:52:00.707Z,5.80
2018-06-22T14:54:35.636Z,8.70
2018-06-22T14:57:10.187Z,8.80
2018-06-22T14:59:45.144Z,9.37
2018-06-22T15:02:19.898Z,8.30
2018-06-22T15:04:54.466Z,10.80
2018-06-22T15:07:30.384Z,10.97
2018-06-22T15:09:59.549Z,4.30
2018-06-22T15:12:28.861Z,4.13
2018-06-22T15:14:57.936Z,5.43
2018-06-22T15:17:26.972Z,3.83
2018-06-22T15:19:56.136Z,8.70
2018-06-22T15:22:25.061Z,4.13
2018-06-22T15:24:53.988Z,4.57
2018-06-22T15:27:24.333Z,5.77
2018-06-22T15:29:53.470Z,4.13
2018-06-22T15:32:22.670Z,4.27
2018-06-22T15:34:57.485Z,8.03
2018-06-22T15:37:32.066Z,6.00
2018-06-22T15:40:06.706Z,4.20
2018-06-22T15:43:43.400Z,4.13
2018-06-22T15:46:18.887Z,5.60
2018-06-22T15:48:53.538Z,4.90
2018-06-22T15:51:28.457Z,5.03
2018-06-22T15:54:03.020Z,4.03
2018-06-22T15:56:31.978Z,4.07
2018-06-22T15:59:00.848Z,3.40
2018-06-22T16:01:30.599Z,4.97
2018-06-22T16:04:00.177Z,5.20
2018-06-22T16:06:29.758Z,4.17
2018-06-22T16:08:59.040Z,4.20
2018-06-22T16:11:29.349Z,4.53
2018-06-22T16:14:03.972Z,3.87
2018-06-22T16:16:38.560Z,4.47
2018-06-22T16:19:13.810Z,4.30
2018-06-22T16:21:48.480Z,4.07
2018-06-22T16:25:42.440Z,3.50
2018-06-22T16:28:11.478Z,4.57
2018-06-22T16:30:40.899Z,3.83
2018-06-22T16:33:10.776Z,4.33
2018-06-22T16:35:39.754Z,4.30
2018-06-22T16:38:09.046Z,7.87
2018-06-22T16:40:38.134Z,4.07
2018-06-22T16:43:08.331Z,4.33
2018-06-22T16:45:37.330Z,3.70
2018-06-22T16:48:06.729Z,4.27
2018-06-22T16:50:35.824Z,3.40
2018-06-22T16:53:04.683Z,3.80
2018-06-22T16:55:33.836Z,4.90
2018-06-22T16:58:03.085Z,2.97
2018-06-22T17:00:32.178Z,2.50
2018-06-22T17:03:01.461Z,2.53
2018-06-22T17:05:30.607Z,1.70
2018-06-22T17:08:05.111Z,1.80
2018-06-22T17:10:40.336Z,4.10
2018-06-22T17:13:15.367Z,1.33
2018-06-22T17:15:50.248Z,1.70
2018-06-22T17:18:24.933Z,2.13
2018-06-22T17:20:54.080Z,0.93
2018-06-22T17:23:22.990Z,1.20
2018-06-22T17:25:52.486Z,1.00
2018-06-22T17:28:21.407Z,0.90
2018-06-22T17:30:50.415Z,0.80
2018-06-22T17:33:19.339Z,0.87
2018-06-22T17:35:48.276Z,0.97
2018-06-22T17:38:17.336Z,0.80
2018-06-22T17:40:46.632Z,0.80
2018-06-22T17:43:15.772Z,0.83
2018-06-22T17:45:44.750Z,1.20
2018-06-22T17:48:13.868Z,0.83
2018-06-22T17:50:42.987Z,1.10
2018-06-22T17:53:11.949Z,0.90
2018-06-22T17:55:41.090Z,0.50
2018-06-22T17:58:10.332Z,0.70
2018-06-22T18:00:45.726Z,0.80
2018-06-22T18:03:20.750Z,0.60
2018-06-22T18:05:55.308Z,0.70
2018-06-22T18:08:30.259Z,0.70
2018-06-22T18:11:04.941Z,1.00
2018-06-22T18:13:33.904Z,1.30
2018-06-22T18:16:03.520Z,1.30
2018-06-22T18:18:33.642Z,1.07
2018-06-22T18:21:02.570Z,1.13
2018-06-22T18:23:31.807Z,1.67
2018-06-22T18:26:01.055Z,2.90
2018-06-22T18:28:30.239Z,4.67
2018-06-22T18:30:59.788Z,3.60
2018-06-22T18:33:29.044Z,2.27
2018-06-22T18:35:58.293Z,1.83
2018-06-22T18:38:27.360Z,1.13
2018-06-22T18:40:56.441Z,4.33
2018-06-22T18:43:31.200Z,1.90
2018-06-22T18:46:00.461Z,1.20
2018-06-22T18:48:29.857Z,1.40
2018-06-22T18:50:59.154Z,1.37
2018-06-22T18:53:33.948Z,1.07
2018-06-22T18:56:10.213Z,1.00
2018-06-22T18:58:45.141Z,0.90
2018-06-22T19:01:20.139Z,1.20
2018-06-22T19:03:50.225Z,1.00
2018-06-22T19:06:21.028Z,1.20
2018-06-22T19:08:50.456Z,3.30
2018-06-22T19:11:20.200Z,2.80
2018-06-22T19:13:49.488Z,1.50
2018-06-22T19:16:18.600Z,1.30
2018-06-22T19:18:47.664Z,1.73
2018-06-22T19:21:16.765Z,1.97
2018-06-22T19:23:45.896Z,0.80
2018-06-22T19:26:15.285Z,0.90
2018-06-22T19:28:45.359Z,1.13
2018-06-22T19:31:14.791Z,1.40
2018-06-22T19:33:44.770Z,1.60
2018-06-22T19:36:14.135Z,4.70
2018-06-22T19:38:43.600Z,1.10
2018-06-22T19:41:12.839Z,0.90
2018-06-22T19:43:47.263Z,1.40
2018-06-22T19:46:21.910Z,0.77
2018-06-22T19:48:56.774Z,1.10
2018-06-22T19:51:31.940Z,0.80
2018-06-22T19:54:07.117Z,0.70
2018-06-22T19:56:36.396Z,0.73
2018-06-22T19:59:05.790Z,2.03
2018-06-22T20:01:34.957Z,0.70
2018-06-22T20:04:04.855Z,0.50
2018-06-22T20:06:33.791Z,0.50
2018-06-22T20:09:05.666Z,0.70
2018-06-22T20:11:34.572Z,0.87
2018-06-22T20:14:04.397Z,1.23
2018-06-22T20:16:33.770Z,1.10
2018-06-22T20:19:02.933Z,1.20
2018-06-22T20:21:32.191Z,1.40
2018-06-22T20:24:02.051Z,2.27
2018-06-22T20:26:31.139Z,1.37
2018-06-22T20:29:00.354Z,1.70
2018-06-22T20:31:35.153Z,1.80
2018-06-22T20:34:09.909Z,0.80
2018-06-22T20:36:44.791Z,1.00
2018-06-22T20:39:19.202Z,1.10
2018-06-22T20:42:54.078Z,0.87
2018-06-22T20:45:29.085Z,1.33
2018-06-22T20:48:04.492Z,1.37
2018-06-22T20:50:36.015Z,1.43
2018-06-22T20:53:06.130Z,0.70
2018-06-22T20:55:35.196Z,0.83
2018-06-22T20:58:04.319Z,0.80
2018-06-22T21:00:33.865Z,0.43
2018-06-22T21:03:03.129Z,0.70
2018-06-22T21:05:32.611Z,0.83
2018-06-22T21:08:02.018Z,0.90
2018-06-22T21:10:31.555Z,0.67
2018-06-22T21:13:01.056Z,1.10
2018-06-22T21:15:30.592Z,1.23
2018-06-22T21:18:00.005Z,1.50
2018-06-22T21:20:29.031Z,1.20
2018-06-22T21:22:58.388Z,1.60
2018-06-22T21:25:27.683Z,1.50
2018-06-22T21:28:02.882Z,1.47
2018-06-22T21:30:37.719Z,1.40
2018-06-22T21:34:14.180Z,1.23
2018-06-22T21:36:49.666Z,2.00
2018-06-22T21:39:18.975Z,1.70
2018-06-22T21:41:48.367Z,1.80
2018-06-22T21:44:17.692Z,1.70
2018-06-22T21:46:46.725Z,1.80
2018-06-22T21:49:15.823Z,1.23
2018-06-22T21:51:45.054Z,1.70
2018-06-22T21:54:14.092Z,1.30
2018-06-22T21:56:43.006Z,1.23
2018-06-22T21:59:12.397Z,1.40
2018-06-22T22:01:42.010Z,1.40
2018-06-22T22:04:10.896Z,1.17
2018-06-22T22:06:39.609Z,1.20
2018-06-22T22:09:09.530Z,1.50
2018-06-22T22:11:44.252Z,1.40
2018-06-22T22:14:13.171Z,1.20
2018-06-22T22:16:42.007Z,1.20
2018-06-22T22:19:10.922Z,1.00
2018-06-22T22:21:39.811Z,1.37
2018-06-22T22:24:09.631Z,1.30
2018-06-22T22:26:38.543Z,1.10
2018-06-22T22:29:09.235Z,0.83
2018-06-22T22:31:38.116Z,1.00
2018-06-22T22:34:07.131Z,0.90
2018-06-22T22:36:36.020Z,1.13
2018-06-22T22:39:06.883Z,0.90
2018-06-22T22:41:36.465Z,1.33
2018-06-22T22:44:05.362Z,0.87
2018-06-22T22:46:34.204Z,1.30
2018-06-22T22:49:03.438Z,0.90
2018-06-22T22:51:32.351Z,1.30
2018-06-22T22:54:01.243Z,1.30
2018-06-22T22:56:30.089Z,1.40
2018-06-22T22:58:58.963Z,0.97
2018-06-22T23:01:27.887Z,1.50
2018-06-22T23:03:56.733Z,1.00
2018-06-22T23:06:25.520Z,1.00
2018-06-22T23:08:54.371Z,0.87
2018-06-22T23:11:23.219Z,1.10
2018-06-22T23:13:52.171Z,1.00
2018-06-22T23:16:27.839Z,1.03
2018-06-22T23:18:56.565Z,1.00
2018-06-22T23:21:25.476Z,0.73
2018-06-22T23:23:54.334Z,0.80
2018-06-22T23:26:23.259Z,1.00
2018-06-22T23:28:52.088Z,1.20
2018-06-22T23:31:20.907Z,1.30
2018-06-22T23:33:49.765Z,0.80
2018-06-22T23:36:18.611Z,1.00
2018-06-22T23:38:47.455Z,0.97
2018-06-22T23:41:16.399Z,0.67
2018-06-22T23:43:45.260Z,1.30
2018-06-22T23:46:14.148Z,0.87
2018-06-22T23:48:42.987Z,0.80
2018-06-22T23:51:11.851Z,0.90
2018-06-22T23:53:40.666Z,0.83
2018-06-22T23:56:09.835Z,0.83
2018-06-22T23:58:38.659Z,1.20
